Kalenakliyat 2 — TCBA7 — position and weather

sailwx.info

Track history (hours):
 
Tides and Currents Weather Stations Pressure Air Temp Water Temp Dewpoint Dewpoint Depression Visibility Wind Speed Wind Dir Waves Ship Positions

Kalenakliyat 2

Last reported at 2014-Jul-31 15:29 UTC. Time now 2014-Aug-01 22:31 UTC.
Position N 40°49' E 029°02'.

Length 72 m; draft 4.3 m.

Type: Cargo ship. MMSI: 271002023.

Date/timePositionNaut miles runAvg speedWind from/ knotsBaromVisibWave heightAir tempDewpointWater temp
2014-Jul-31 15:29N 40°49' E 029°02'9 9.3
2014-Jul-31 14:33N 40°52' E 029°12'0 0.5
2014-Jul-31 13:33N 40°53' E 029°12'0 0.0
2014-Jul-31 12:33N 40°53' E 029°12'0 0.0
2014-Jul-31 11:33N 40°53' E 029°12'0 0.0
2014-Jul-31 10:33N 40°53' E 029°12'0 0.0
2014-Jul-31 09:33N 40°53' E 029°12'0 0.0
2014-Jul-31 08:33N 40°53' E 029°12'0 0.0
2014-Jul-31 07:33N 40°53' E 029°12'  
2014-Jul-26 15:12N 40°48' E 028°56'6 9.7
2014-Jul-26 14:33N 40°49' E 029°04'7 6.8
2014-Jul-26 13:33N 40°53' E 029°12'0 0.0
2014-Jul-26 12:32N 40°53' E 029°12'0 0.0
2014-Jul-26 11:33N 40°53' E 029°12'0 0.0
2014-Jul-26 10:33N 40°53' E 029°12'0 0.0
2014-Jul-26 09:33N 40°53' E 029°12'0 0.0
2014-Jul-26 08:33N 40°53' E 029°12'0 0.0
2014-Jul-26 07:33N 40°53' E 029°12'0 0.0
2014-Jul-26 06:33N 40°53' E 029°12'0 0.0
2014-Jul-26 05:33N 40°53' E 029°12'3 3.0
2014-Jul-26 04:33N 40°51' E 029°09'10 9.6
2014-Jul-26 03:32N 40°47' E 028°58'9 9.4
2014-Jul-26 02:33N 40°45' E 028°46'8 0.2
2014-Jul-24 16:21N 40°48' E 028°55'7 9.0
2014-Jul-24 15:32N 40°49' E 029°05'7 7.0
2014-Jul-24 14:33N 40°53' E 029°12'0 0.0
2014-Jul-24 13:33N 40°53' E 029°12'0 0.0
2014-Jul-24 12:33N 40°53' E 029°12'0 0.0
2014-Jul-24 11:33N 40°53' E 029°12'0 0.0
2014-Jul-24 10:32N 40°53' E 029°12'0 0.0
2014-Jul-24 09:33N 40°53' E 029°12'0 0.0
2014-Jul-24 08:33N 40°53' E 029°12'0 0.0
2014-Jul-24 07:33N 40°53' E 029°12'0 0.0
2014-Jul-24 06:33N 40°53' E 029°12'0 0.0
2014-Jul-24 05:33N 40°53' E 029°12'5 5.0
2014-Jul-24 04:33N 40°50' E 029°07'9 9.0
2014-Jul-24 03:33N 40°47' E 028°56'8 8.2
2014-Jul-24 02:33N 40°46' E 028°45'  
Track history (hours):
 
Tides and Currents Weather Stations Pressure Air Temp Water Temp Dewpoint Dewpoint Depression Visibility Wind Speed Wind Dir Waves Ship Positions

Kalenakliyat 2

Last reported at 2014-Jul-31 15:29 UTC. Time now 2014-Aug-01 22:31 UTC.
Position N 40°49' E 029°02'.

Length 72 m; draft 4.3 m.

Type: Cargo ship. MMSI: 271002023.

Date/timePositionNaut miles runAvg speedWind from/ knotsBaromVisibWave heightAir tempDewpointWater temp
2014-Jul-31 15:29N 40°49' E 029°02'9 9.3
2014-Jul-31 14:33N 40°52' E 029°12'0 0.5
2014-Jul-31 13:33N 40°53' E 029°12'0 0.0
2014-Jul-31 12:33N 40°53' E 029°12'0 0.0
2014-Jul-31 11:33N 40°53' E 029°12'0 0.0
2014-Jul-31 10:33N 40°53' E 029°12'0 0.0
2014-Jul-31 09:33N 40°53' E 029°12'0 0.0
2014-Jul-31 08:33N 40°53' E 029°12'0 0.0
2014-Jul-31 07:33N 40°53' E 029°12'  
2014-Jul-26 15:12N 40°48' E 028°56'6 9.7
2014-Jul-26 14:33N 40°49' E 029°04'7 6.8
2014-Jul-26 13:33N 40°53' E 029°12'0 0.0
2014-Jul-26 12:32N 40°53' E 029°12'0 0.0
2014-Jul-26 11:33N 40°53' E 029°12'0 0.0
2014-Jul-26 10:33N 40°53' E 029°12'0 0.0
2014-Jul-26 09:33N 40°53' E 029°12'0 0.0
2014-Jul-26 08:33N 40°53' E 029°12'0 0.0
2014-Jul-26 07:33N 40°53' E 029°12'0 0.0
2014-Jul-26 06:33N 40°53' E 029°12'0 0.0
2014-Jul-26 05:33N 40°53' E 029°12'3 3.0
2014-Jul-26 04:33N 40°51' E 029°09'10 9.6
2014-Jul-26 03:32N 40°47' E 028°58'9 9.4
2014-Jul-26 02:33N 40°45' E 028°46'8 0.2
2014-Jul-24 16:21N 40°48' E 028°55'7 9.0
2014-Jul-24 15:32N 40°49' E 029°05'7 7.0
2014-Jul-24 14:33N 40°53' E 029°12'0 0.0
2014-Jul-24 13:33N 40°53' E 029°12'0 0.0
2014-Jul-24 12:33N 40°53' E 029°12'0 0.0
2014-Jul-24 11:33N 40°53' E 029°12'0 0.0
2014-Jul-24 10:32N 40°53' E 029°12'0 0.0
2014-Jul-24 09:33N 40°53' E 029°12'0 0.0
2014-Jul-24 08:33N 40°53' E 029°12'0 0.0
2014-Jul-24 07:33N 40°53' E 029°12'0 0.0
2014-Jul-24 06:33N 40°53' E 029°12'0 0.0
2014-Jul-24 05:33N 40°53' E 029°12'5 5.0
2014-Jul-24 04:33N 40°50' E 029°07'9 9.0
2014-Jul-24 03:33N 40°47' E 028°56'8 8.2
2014-Jul-24 02:33N 40°46' E 028°45'  

Dump ship's entire track history